KHLB/HLB METAR and TAF weather

Enter ICAO airport designator
Station Type Date Time Source
KHLB METAR 2019/02/17 15:35 UTC NOAA

KHLB 171535Z AUTO 09008KT 10SM OVC017 M02/M04 A2981 RMK A01


Station Type Date Time Source
KHLB Decoded METAR 2019/02/17 15:35 UTC NOAA

Station name not available
Feb 17, 2019 - 10:35 AM EST / 2019.02.17 1535 UTC
Wind: from the E (090 degrees) at 9 MPH (8 KT):0
Visibility: 10 mile(s):0
Sky conditions: overcast
Temperature: 28 F (-2 C)
Windchill: 19 F (-7 C):1
Dew Point: 24 F (-4 C)
Relative Humidity: 86%
Pressure (altimeter): 29.81 in. Hg (1009 hPa)
ob: KHLB 171535Z AUTO 09008KT 10SM OVC017 M02/M04 A2981 RMK A01
cycle: 15

Station Type Date Time Source
KHLB TAF UTC NOAA

Error!


Example: see airport list